Warba, Minnesota
Current Conditions -  °F | °C
As of 11:35 AM on Tuesday 21 Oct 2014 (Local Time) from KGPZ Reporting Station
Overcast Overcast  
Wind Chill: 38°   Ceiling: 2100
Heat Index: 45°   Visibility: 10mi
Dew Point: 36°   Wind: 13mph
Humidity: 71%   Direction: 150°SSE
Pressure: 30.19"   Gusts: 16mph
Location:  47.13°N, 93.27°W
Report Text: KGPZ 211635Z AUTO 15011G14KT 10SM OVC021 07/02 A3019 RMK AO1
Loading
Personal Weather Stations






























Interactive Weather Map
Tropical Storm Tracking
New forecast layout! Learn more

10-Day Weather Forecast

Advertisements
Track Severe Weather on mobile